sensor_id;sensor_type;location;lat;lon;timestamp;pressure;altitude;pressure_sealevel;temperature;humidity
10145;BME280;5113;41.822;23.564;2023-04-28T00:00:58;-11072.16;;;4.98;87.12
10145;BME280;5113;41.822;23.564;2023-04-28T00:04:05;-11073.97;;;5.05;85.73
10145;BME280;5113;41.822;23.564;2023-04-28T00:07:12;-11076.06;;;5.13;88.05
10145;BME280;5113;41.822;23.564;2023-04-28T00:10:18;-11074.69;;;5.08;91.96
10145;BME280;5113;41.822;23.564;2023-04-28T00:13:24;-11070.59;;;4.93;89.74
10145;BME280;5113;41.822;23.564;2023-04-28T00:16:30;-11074.13;;;5.06;87.92
10145;BME280;5113;41.822;23.564;2023-04-28T00:19:38;-11067.09;;;4.80;93.66
10145;BME280;5113;41.822;23.564;2023-04-28T00:22:44;-11061.06;;;4.58;92.40
10145;BME280;5113;41.822;23.564;2023-04-28T00:25:50;-11059.94;;;4.54;94.80
10145;BME280;5113;41.822;23.564;2023-04-28T00:28:59;-11062.19;;;4.62;93.55
10145;BME280;5113;41.822;23.564;2023-04-28T00:32:06;-11055.88;;;4.40;96.29
10145;BME280;5113;41.822;23.564;2023-04-28T00:35:13;-11049.84;;;4.18;94.60
10145;BME280;5113;41.822;23.564;2023-04-28T00:38:19;-11049.69;;;4.17;95.53
10145;BME280;5113;41.822;23.564;2023-04-28T00:41:29;-11058.69;;;4.50;93.18
10145;BME280;5113;41.822;23.564;2023-04-28T00:44:35;-11057.69;;;4.46;93.10
10145;BME280;5113;41.822;23.564;2023-04-28T00:47:42;-11054.88;;;4.36;90.13
10145;BME280;5113;41.822;23.564;2023-04-28T00:50:50;-11066.66;;;4.79;88.67
10145;BME280;5113;41.822;23.564;2023-04-28T00:53:57;-11051.50;;;4.24;91.58
10145;BME280;5113;41.822;23.564;2023-04-28T00:57:03;-11061.34;;;4.59;92.80
10145;BME280;5113;41.822;23.564;2023-04-28T01:00:10;-11044.50;;;3.98;96.03
10145;BME280;5113;41.822;23.564;2023-04-28T01:03:20;-11042.81;;;3.92;97.90
10145;BME280;5113;41.822;23.564;2023-04-28T01:06:28;-11047.72;;;4.10;99.62
10145;BME280;5113;41.822;23.564;2023-04-28T01:09:35;-11040.56;;;3.84;93.59
10145;BME280;5113;41.822;23.564;2023-04-28T01:12:41;-11043.94;;;3.96;92.56
10145;BME280;5113;41.822;23.564;2023-04-28T01:15:47;-11026.28;;;3.33;99.95
10145;BME280;5113;41.822;23.564;2023-04-28T01:18:54;-11036.50;;;3.70;100.00
10145;BME280;5113;41.822;23.564;2023-04-28T01:22:01;-11042.53;;;3.91;94.73
10145;BME280;5113;41.822;23.564;2023-04-28T01:25:09;-11042.25;;;3.90;95.72
10145;BME280;5113;41.822;23.564;2023-04-28T01:28:16;-11045.63;;;4.03;96.27
10145;BME280;5113;41.822;23.564;2023-04-28T01:31:22;-11046.03;;;4.04;97.88
10145;BME280;5113;41.822;23.564;2023-04-28T01:34:29;-11042.81;;;3.92;95.98
10145;BME280;5113;41.822;23.564;2023-04-28T01:37:35;-11041.13;;;3.86;94.08
10145;BME280;5113;41.822;23.564;2023-04-28T01:40:42;-11017.44;;;3.01;99.04
10145;BME280;5113;41.822;23.564;2023-04-28T01:43:48;-10993.59;;;2.14;100.00
10145;BME280;5113;41.822;23.564;2023-04-28T01:46:54;-10999.19;;;2.35;100.00
10145;BME280;5113;41.822;23.564;2023-04-28T01:50:00;-10985.19;;;1.84;100.00
10145;BME280;5113;41.822;23.564;2023-04-28T01:53:06;-10987.28;;;1.91;100.00
10145;BME280;5113;41.822;23.564;2023-04-28T01:56:14;-10993.88;;;2.15;100.00
10145;BME280;5113;41.822;23.564;2023-04-28T01:59:20;-10987.28;;;1.91;100.00
10145;BME280;5113;41.822;23.564;2023-04-28T02:02:27;-11000.47;;;2.39;100.00
10145;BME280;5113;41.822;23.564;2023-04-28T02:05:33;-11005.50;;;2.57;100.00
10145;BME280;5113;41.822;23.564;2023-04-28T02:08:40;-11004.25;;;2.53;100.00
10145;BME280;5113;41.822;23.564;2023-04-28T02:11:47;-11012.66;;;2.83;100.00
10145;BME280;5113;41.822;23.564;2023-04-28T02:14:54;-11006.06;;;2.59;100.00
10145;BME280;5113;41.822;23.564;2023-04-28T02:18:00;-11012.53;;;2.83;100.00
10145;BME280;5113;41.822;23.564;2023-04-28T02:21:09;-11014.34;;;2.89;100.00
10145;BME280;5113;41.822;23.564;2023-04-28T02:24:16;-11010.00;;;2.74;100.00
10145;BME280;5113;41.822;23.564;2023-04-28T02:27:23;-11013.66;;;2.87;100.00
10145;BME280;5113;41.822;23.564;2023-04-28T02:30:29;-11010.41;;;2.75;100.00
10145;BME280;5113;41.822;23.564;2023-04-28T02:33:36;-11016.44;;;2.97;100.00
10145;BME280;5113;41.822;23.564;2023-04-28T02:36:42;-11011.97;;;2.81;100.00
10145;BME280;5113;41.822;23.564;2023-04-28T02:39:48;-11008.88;;;2.70;100.00
10145;BME280;5113;41.822;23.564;2023-04-28T02:42:56;-11011.13;;;2.78;100.00
10145;BME280;5113;41.822;23.564;2023-04-28T02:46:02;-10996.81;;;2.26;100.00
10145;BME280;5113;41.822;23.564;2023-04-28T02:49:09;-11004.66;;;2.54;100.00
10145;BME280;5113;41.822;23.564;2023-04-28T02:52:15;-10987.44;;;1.92;100.00
10145;BME280;5113;41.822;23.564;2023-04-28T02:55:21;-10996.81;;;2.26;100.00
10145;BME280;5113;41.822;23.564;2023-04-28T02:58:29;-10999.34;;;2.35;100.00
10145;BME280;5113;41.822;23.564;2023-04-28T03:01:35;-11000.19;;;2.38;100.00
10145;BME280;5113;41.822;23.564;2023-04-28T03:04:42;-10996.41;;;2.24;100.00
10145;BME280;5113;41.822;23.564;2023-04-28T03:07:48;-10993.72;;;2.15;100.00
10145;BME280;5113;41.822;23.564;2023-04-28T03:10:54;-11001.59;;;2.43;100.00
10145;BME280;5113;41.822;23.564;2023-04-28T03:14:02;-10997.66;;;2.29;100.00
10145;BME280;5113;41.822;23.564;2023-04-28T03:17:08;-10999.34;;;2.35;100.00
10145;BME280;5113;41.822;23.564;2023-04-28T03:20:15;-10994.84;;;2.19;100.00
10145;BME280;5113;41.822;23.564;2023-04-28T03:23:21;-10995.13;;;2.20;100.00
10145;BME280;5113;41.822;23.564;2023-04-28T03:26:27;-10982.78;;;1.75;100.00
10145;BME280;5113;41.822;23.564;2023-04-28T03:29:35;-10965.00;;;1.11;100.00
10145;BME280;5113;41.822;23.564;2023-04-28T03:32:41;-10971.16;;;1.33;100.00
10145;BME280;5113;41.822;23.564;2023-04-28T03:35:47;-10988.81;;;1.97;100.00
10145;BME280;5113;41.822;23.564;2023-04-28T03:38:53;-10988.41;;;1.95;100.00
10145;BME280;5113;41.822;23.564;2023-04-28T03:41:59;-10986.16;;;1.87;100.00
10145;BME280;5113;41.822;23.564;2023-04-28T03:45:08;-10990.94;;;2.05;100.00
10145;BME280;5113;41.822;23.564;2023-04-28T03:48:14;-10995.97;;;2.23;100.00
10145;BME280;5113;41.822;23.564;2023-04-28T03:51:20;-10988.69;;;1.96;100.00
10145;BME280;5113;41.822;23.564;2023-04-28T03:54:26;-10997.09;;;2.27;100.00
10145;BME280;5113;41.822;23.564;2023-04-28T03:57:33;-11002.97;;;2.48;100.00
10145;BME280;5113;41.822;23.564;2023-04-28T04:00:41;-10999.34;;;2.35;100.00
10145;BME280;5113;41.822;23.564;2023-04-28T04:03:47;-11007.19;;;2.63;100.00
10145;BME280;5113;41.822;23.564;2023-04-28T04:06:54;-11008.31;;;2.68;100.00
10145;BME280;5113;41.822;23.564;2023-04-28T04:10:00;-11007.75;;;2.65;100.00
10145;BME280;5113;41.822;23.564;2023-04-28T04:13:08;-11007.75;;;2.65;100.00
10145;BME280;5113;41.822;23.564;2023-04-28T04:16:16;-11007.47;;;2.64;100.00
10145;BME280;5113;41.822;23.564;2023-04-28T04:19:23;-11016.31;;;2.96;100.00
10145;BME280;5113;41.822;23.564;2023-04-28T04:22:30;-11022.34;;;3.18;100.00
10145;BME280;5113;41.822;23.564;2023-04-28T04:25:37;-11024.03;;;3.24;100.00
10145;BME280;5113;41.822;23.564;2023-04-28T04:28:43;-11025.72;;;3.30;100.00
10145;BME280;5113;41.822;23.564;2023-04-28T04:31:51;-11033.56;;;3.59;100.00
10145;BME280;5113;41.822;23.564;2023-04-28T04:34:57;-11031.88;;;3.53;100.00
10145;BME280;5113;41.822;23.564;2023-04-28T04:38:03;-11038.75;;;3.78;100.00
10145;BME280;5113;41.822;23.564;2023-04-28T04:41:11;-11039.16;;;3.79;100.00
10145;BME280;5113;41.822;23.564;2023-04-28T04:44:17;-11054.75;;;4.36;100.00
10145;BME280;5113;41.822;23.564;2023-04-28T04:47:25;-11050.53;;;4.20;96.57
10145;BME280;5113;41.822;23.564;2023-04-28T04:50:49;-11067.94;;;4.83;96.88
10145;BME280;5113;41.822;23.564;2023-04-28T04:53:55;-11065.56;;;4.75;92.34
10145;BME280;5113;41.822;23.564;2023-04-28T04:57:01;-11088.16;;;5.56;88.77
10145;BME280;5113;41.822;23.564;2023-04-28T05:00:08;-11082.41;;;5.36;81.74
10145;BME280;5113;41.822;23.564;2023-04-28T05:03:16;-11070.47;;;4.92;80.92
10145;BME280;5113;41.822;23.564;2023-04-28T05:06:22;-11075.94;;;5.12;79.07
10145;BME280;5113;41.822;23.564;2023-04-28T05:09:28;-11073.41;;;5.03;78.80
10145;BME280;5113;41.822;23.564;2023-04-28T05:12:35;-11087.59;;;5.54;78.65
10145;BME280;5113;41.822;23.564;2023-04-28T05:15:41;-11096.72;;;5.87;76.61
10145;BME280;5113;41.822;23.564;2023-04-28T05:18:49;-11092.09;;;5.71;78.14
10145;BME280;5113;41.822;23.564;2023-04-28T05:21:55;-11111.47;;;6.41;73.54
10145;BME280;5113;41.822;23.564;2023-04-28T05:25:02;-11108.09;;;6.28;75.09
10145;BME280;5113;41.822;23.564;2023-04-28T05:28:08;-11107.41;;;6.26;72.10
10145;BME280;5113;41.822;23.564;2023-04-28T05:31:15;-11113.84;;;6.49;70.63
10145;BME280;5113;41.822;23.564;2023-04-28T05:34:23;-11122.13;;;6.79;68.54
10145;BME280;5113;41.822;23.564;2023-04-28T05:37:29;-11117.78;;;6.63;66.40
10145;BME280;5113;41.822;23.564;2023-04-28T05:40:35;-11126.63;;;6.95;64.73
10145;BME280;5113;41.822;23.564;2023-04-28T05:43:41;-11139.13;;;7.41;64.82
10145;BME280;5113;41.822;23.564;2023-04-28T05:46:48;-11135.06;;;7.26;63.97
10145;BME280;5113;41.822;23.564;2023-04-28T05:49:55;-11117.94;;;6.64;65.52
10145;BME280;5113;41.822;23.564;2023-04-28T05:53:02;-11130.84;;;7.11;65.01
10145;BME280;5113;41.822;23.564;2023-04-28T05:56:09;-11132.09;;;7.15;64.54
10145;BME280;5113;41.822;23.564;2023-04-28T05:59:16;-11149.25;;;7.77;62.83
10145;BME280;5113;41.822;23.564;2023-04-28T06:02:22;-11132.94;;;7.18;62.73
10145;BME280;5113;41.822;23.564;2023-04-28T06:05:33;-11146.44;;;7.67;61.12
10145;BME280;5113;41.822;23.564;2023-04-28T06:08:39;-11150.09;;;7.80;60.80
10145;BME280;5113;41.822;23.564;2023-04-28T06:11:45;-11162.19;;;8.24;59.35
10145;BME280;5113;41.822;23.564;2023-04-28T06:14:51;-11148.13;;;7.73;60.23
10145;BME280;5113;41.822;23.564;2023-04-28T06:17:59;-11156.97;;;8.05;59.73
10145;BME280;5113;41.822;23.564;2023-04-28T06:21:06;-11161.47;;;8.21;60.54
10145;BME280;5113;41.822;23.564;2023-04-28T06:24:13;-11165.56;;;8.36;59.46
10145;BME280;5113;41.822;23.564;2023-04-28T06:27:20;-11167.81;;;8.44;58.68
10145;BME280;5113;41.822;23.564;2023-04-28T06:30:26;-11171.03;;;8.56;57.37
10145;BME280;5113;41.822;23.564;2023-04-28T06:33:32;-11176.09;;;8.74;58.03
10145;BME280;5113;41.822;23.564;2023-04-28T06:36:40;-11197.59;;;9.52;56.98
10145;BME280;5113;41.822;23.564;2023-04-28T06:39:46;-11174.69;;;8.69;56.70
10145;BME280;5113;41.822;23.564;2023-04-28T06:42:52;-11186.50;;;9.12;55.87
10145;BME280;5113;41.822;23.564;2023-04-28T06:45:59;-11178.34;;;8.82;55.90
10145;BME280;5113;41.822;23.564;2023-04-28T06:49:06;-11191.97;;;9.32;54.54
10145;BME280;5113;41.822;23.564;2023-04-28T06:52:14;-11192.53;;;9.34;54.20
10145;BME280;5113;41.822;23.564;2023-04-28T06:55:20;-11205.47;;;9.80;53.48
10145;BME280;5113;41.822;23.564;2023-04-28T06:58:27;-11218.28;;;10.27;53.01
10145;BME280;5113;41.822;23.564;2023-04-28T07:01:33;-11206.59;;;9.84;52.26
10145;BME280;5113;41.822;23.564;2023-04-28T07:04:40;-11219.25;;;10.30;52.94
10145;BME280;5113;41.822;23.564;2023-04-28T07:07:47;-11222.34;;;10.41;51.65
10145;BME280;5113;41.822;23.564;2023-04-28T07:10:54;-11213.06;;;10.08;51.43
10145;BME280;5113;41.822;23.564;2023-04-28T07:14:00;-11234.88;;;10.86;51.03
10145;BME280;5113;41.822;23.564;2023-04-28T07:17:06;-11243.19;;;11.16;49.95
10145;BME280;5113;41.822;23.564;2023-04-28T07:20:13;-11246.84;;;11.30;48.86
10145;BME280;5113;41.822;23.564;2023-04-28T07:23:21;-11258.66;;;11.72;49.01
10145;BME280;5113;41.822;23.564;2023-04-28T07:26:27;-11253.88;;;11.55;47.44
10145;BME280;5113;41.822;23.564;2023-04-28T07:29:34;-11253.03;;;11.52;45.88
10145;BME280;5113;41.822;23.564;2023-04-28T07:32:40;-11217.72;;;10.24;49.30
10145;BME280;5113;41.822;23.564;2023-04-28T07:35:47;-11234.47;;;10.85;48.50
10145;BME280;5113;41.822;23.564;2023-04-28T07:38:59;-11252.19;;;11.49;47.92
10145;BME280;5113;41.822;23.564;2023-04-28T07:42:05;-11251.06;;;11.45;47.52
10145;BME280;5113;41.822;23.564;2023-04-28T07:45:11;-11265.56;;;11.97;47.68
10145;BME280;5113;41.822;23.564;2023-04-28T07:48:18;-11246.84;;;11.30;48.64
10145;BME280;5113;41.822;23.564;2023-04-28T07:51:24;-11235.03;;;10.87;48.91
10145;BME280;5113;41.822;23.564;2023-04-28T07:54:32;-11258.38;;;11.71;46.77
10145;BME280;5113;41.822;23.564;2023-04-28T07:57:40;-11247.69;;;11.33;47.58
10145;BME280;5113;41.822;23.564;2023-04-28T08:00:47;-11257.25;;;11.67;47.46
10145;BME280;5113;41.822;23.564;2023-04-28T08:03:53;-11301.03;;;13.25;45.93
10145;BME280;5113;41.822;23.564;2023-04-28T08:06:59;-11281.59;;;12.55;42.76
10145;BME280;5113;41.822;23.564;2023-04-28T08:10:08;-11280.19;;;12.50;44.27
10145;BME280;5113;41.822;23.564;2023-04-28T08:13:15;-11282.28;;;12.57;42.76
10145;BME280;5113;41.822;23.564;2023-04-28T08:16:21;-11278.63;;;12.44;43.35
10145;BME280;5113;41.822;23.564;2023-04-28T08:19:28;-11315.94;;;13.79;42.49
10145;BME280;5113;41.822;23.564;2023-04-28T08:22:34;-11285.25;;;12.68;41.75
10145;BME280;5113;41.822;23.564;2023-04-28T08:25:42;-11278.06;;;12.42;41.91
10145;BME280;5113;41.822;23.564;2023-04-28T08:28:48;-11298.34;;;13.15;42.93
10145;BME280;5113;41.822;23.564;2023-04-28T08:31:54;-11288.91;;;12.81;40.72
10145;BME280;5113;41.822;23.564;2023-04-28T08:35:01;-11313.00;;;13.68;40.38
10145;BME280;5113;41.822;23.564;2023-04-28T08:38:07;-11304.13;;;13.36;40.22
10145;BME280;5113;41.822;23.564;2023-04-28T08:41:18;-11299.19;;;13.18;41.20
10145;BME280;5113;41.822;23.564;2023-04-28T08:44:25;-11293.13;;;12.97;41.77
10145;BME280;5113;41.822;23.564;2023-04-28T08:47:33;-11298.19;;;13.15;41.18
10145;BME280;5113;41.822;23.564;2023-04-28T08:50:41;-11300.88;;;13.25;40.84
10145;BME280;5113;41.822;23.564;2023-04-28T08:53:49;-11332.69;;;14.39;39.38
10145;BME280;5113;41.822;23.564;2023-04-28T08:57:03;-11301.72;;;13.28;41.53
10145;BME280;5113;41.822;23.564;2023-04-28T09:00:28;-11305.66;;;13.42;40.30
10145;BME280;5113;41.822;23.564;2023-04-28T09:03:34;-11324.53;;;14.10;40.32
10145;BME280;5113;41.822;23.564;2023-04-28T09:06:40;-11348.47;;;14.96;39.94
10145;BME280;5113;41.822;23.564;2023-04-28T09:09:47;-11310.72;;;13.60;40.73
10145;BME280;5113;41.822;23.564;2023-04-28T09:12:55;-11325.94;;;14.15;40.51
10145;BME280;5113;41.822;23.564;2023-04-28T09:16:02;-11331.44;;;14.35;38.29
10145;BME280;5113;41.822;23.564;2023-04-28T09:19:09;-11329.59;;;14.28;39.23
10145;BME280;5113;41.822;23.564;2023-04-28T09:22:15;-11370.16;;;15.74;37.69
10145;BME280;5113;41.822;23.564;2023-04-28T09:25:31;-11355.22;;;15.20;36.66
10145;BME280;5113;41.822;23.564;2023-04-28T09:28:38;-11328.06;;;14.23;39.14
10145;BME280;5113;41.822;23.564;2023-04-28T09:31:44;-11322.00;;;14.01;36.90
10145;BME280;5113;41.822;23.564;2023-04-28T09:34:51;-11365.38;;;15.57;36.53
10145;BME280;5113;41.822;23.564;2023-04-28T09:37:58;-11350.44;;;15.03;36.35
10145;BME280;5113;41.822;23.564;2023-04-28T09:41:04;-11346.78;;;14.90;35.57
10145;BME280;5113;41.822;23.564;2023-04-28T09:44:13;-11347.34;;;14.92;35.76
10145;BME280;5113;41.822;23.564;2023-04-28T09:47:20;-11357.50;;;15.29;35.81
10145;BME280;5113;41.822;23.564;2023-04-28T09:50:38;-11331.56;;;14.35;35.52
10145;BME280;5113;41.822;23.564;2023-04-28T09:53:45;-11351.56;;;15.07;35.05
10145;BME280;5113;41.822;23.564;2023-04-28T09:56:52;-11350.31;;;15.03;34.84
10145;BME280;5113;41.822;23.564;2023-04-28T10:00:02;-11379.31;;;16.07;33.59
10145;BME280;5113;41.822;23.564;2023-04-28T10:03:10;-11366.66;;;15.62;34.25
10145;BME280;5113;41.822;23.564;2023-04-28T10:06:19;-11360.72;;;15.40;34.61
10145;BME280;5113;41.822;23.564;2023-04-28T10:09:26;-11339.59;;;14.64;36.57
10145;BME280;5113;41.822;23.564;2023-04-28T10:12:32;-11370.16;;;15.74;35.12
10145;BME280;5113;41.822;23.564;2023-04-28T10:15:44;-11341.44;;;14.71;37.33
10145;BME280;5113;41.822;23.564;2023-04-28T10:18:53;-11357.63;;;15.29;36.97
10145;BME280;5113;41.822;23.564;2023-04-28T10:22:13;-11326.50;;;14.17;37.51
10145;BME280;5113;41.822;23.564;2023-04-28T10:25:28;-11393.13;;;16.57;35.98
10145;BME280;5113;41.822;23.564;2023-04-28T10:28:36;-11349.88;;;15.01;37.43
10145;BME280;5113;41.822;23.564;2023-04-28T10:32:13;-11368.19;;;15.67;37.32
10145;BME280;5113;41.822;23.564;2023-04-28T10:35:41;-11392.28;;;16.54;36.94
10145;BME280;5113;41.822;23.564;2023-04-28T10:39:08;-11380.88;;;16.13;36.15
10145;BME280;5113;41.822;23.564;2023-04-28T10:46:06;-11348.47;;;14.96;37.55
10145;BME280;5113;41.822;23.564;2023-04-28T10:49:14;-11366.09;;;15.60;37.40
10145;BME280;5113;41.822;23.564;2023-04-28T10:52:48;-11369.31;;;15.71;37.02
10145;BME280;5113;41.822;23.564;2023-04-28T10:56:04;-11402.00;;;16.89;36.21
10145;BME280;5113;41.822;23.564;2023-04-28T10:59:29;-11364.09;;;15.52;37.02
10145;BME280;5113;41.822;23.564;2023-04-28T11:02:39;-11382.28;;;16.18;34.58
10145;BME280;5113;41.822;23.564;2023-04-28T11:06:20;-11398.34;;;16.76;33.72
10145;BME280;5113;41.822;23.564;2023-04-28T11:09:48;-11376.09;;;15.96;34.13
10145;BME280;5113;41.822;23.564;2023-04-28T11:13:24;-11393.56;;;16.59;34.88
10145;BME280;5113;41.822;23.564;2023-04-28T11:16:31;-11392.72;;;16.56;34.59
10145;BME280;5113;41.822;23.564;2023-04-28T11:19:39;-11409.34;;;17.15;34.67
10145;BME280;5113;41.822;23.564;2023-04-28T11:22:51;-11406.38;;;17.05;33.93
10145;BME280;5113;41.822;23.564;2023-04-28T11:25:57;-11406.81;;;17.06;35.39
10145;BME280;5113;41.822;23.564;2023-04-28T11:29:04;-11383.41;;;16.22;33.38
10145;BME280;5113;41.822;23.564;2023-04-28T11:32:10;-11389.19;;;16.43;34.00
10145;BME280;5113;41.822;23.564;2023-04-28T11:35:16;-11373.00;;;15.84;34.85
10145;BME280;5113;41.822;23.564;2023-04-28T11:38:24;-11379.47;;;16.08;35.46
10145;BME280;5113;41.822;23.564;2023-04-28T11:41:30;-11402.28;;;16.90;33.79
10145;BME280;5113;41.822;23.564;2023-04-28T11:44:38;-11426.25;;;17.76;33.02
10145;BME280;5113;41.822;23.564;2023-04-28T11:47:44;-11400.88;;;16.85;33.66
10145;BME280;5113;41.822;23.564;2023-04-28T11:50:50;-11412.03;;;17.25;34.35
10145;BME280;5113;41.822;23.564;2023-04-28T11:53:58;-11383.69;;;16.23;34.59
10145;BME280;5113;41.822;23.564;2023-04-28T11:57:04;-11389.03;;;16.42;34.02
10145;BME280;5113;41.822;23.564;2023-04-28T12:00:11;-11416.25;;;17.40;32.73
10145;BME280;5113;41.822;23.564;2023-04-28T12:03:23;-11414.13;;;17.33;33.31
10145;BME280;5113;41.822;23.564;2023-04-28T12:06:29;-11427.09;;;17.79;32.20
10145;BME280;5113;41.822;23.564;2023-04-28T12:09:38;-11453.91;;;18.76;31.06
10145;BME280;5113;41.822;23.564;2023-04-28T12:12:46;-11402.56;;;16.91;32.55
10145;BME280;5113;41.822;23.564;2023-04-28T12:15:56;-11385.66;;;16.30;33.64
10145;BME280;5113;41.822;23.564;2023-04-28T12:19:04;-11455.03;;;18.80;31.90
10145;BME280;5113;41.822;23.564;2023-04-28T12:22:14;-11396.25;;;16.68;33.18
10145;BME280;5113;41.822;23.564;2023-04-28T12:25:22;-11420.06;;;17.54;34.20
10145;BME280;5113;41.822;23.564;2023-04-28T12:28:38;-11409.34;;;17.15;32.43
10145;BME280;5113;41.822;23.564;2023-04-28T12:31:48;-11443.19;;;18.37;32.01
10145;BME280;5113;41.822;23.564;2023-04-28T12:34:57;-11440.34;;;18.27;30.95
10145;BME280;5113;41.822;23.564;2023-04-28T12:38:03;-11417.38;;;17.44;31.51
10145;BME280;5113;41.822;23.564;2023-04-28T12:41:11;-11437.81;;;18.18;31.68
10145;BME280;5113;41.822;23.564;2023-04-28T12:44:17;-11435.00;;;18.08;32.46
10145;BME280;5113;41.822;23.564;2023-04-28T12:47:24;-11411.88;;;17.25;31.72
10145;BME280;5113;41.822;23.564;2023-04-28T12:50:31;-11410.47;;;17.20;33.02
10145;BME280;5113;41.822;23.564;2023-04-28T12:53:37;-11437.41;;;18.17;32.79
10145;BME280;5113;41.822;23.564;2023-04-28T12:56:44;-11407.09;;;17.07;33.26
10145;BME280;5113;41.822;23.564;2023-04-28T12:59:51;-11419.34;;;17.52;33.06
10145;BME280;5113;41.822;23.564;2023-04-28T13:02:58;-11460.94;;;19.01;32.07
10145;BME280;5113;41.822;23.564;2023-04-28T13:06:05;-11461.66;;;19.04;31.00
10145;BME280;5113;41.822;23.564;2023-04-28T13:09:11;-11435.13;;;18.08;31.54
10145;BME280;5113;41.822;23.564;2023-04-28T13:12:20;-11448.09;;;18.55;31.80
10145;BME280;5113;41.822;23.564;2023-04-28T13:15:26;-11450.50;;;18.64;30.74
10145;BME280;5113;41.822;23.564;2023-04-28T13:18:33;-11461.78;;;19.04;31.12
10145;BME280;5113;41.822;23.564;2023-04-28T13:21:40;-11397.50;;;16.73;32.29
10145;BME280;5113;41.822;23.564;2023-04-28T13:24:46;-11430.22;;;17.91;31.69
10145;BME280;5113;41.822;23.564;2023-04-28T13:27:54;-11439.78;;;18.25;31.57
10145;BME280;5113;41.822;23.564;2023-04-28T13:31:01;-11433.88;;;18.04;31.69
10145;BME280;5113;41.822;23.564;2023-04-28T13:34:07;-11439.22;;;18.23;31.04
10145;BME280;5113;41.822;23.564;2023-04-28T13:37:20;-11422.59;;;17.63;32.68
10145;BME280;5113;41.822;23.564;2023-04-28T13:40:26;-11408.50;;;17.12;32.58
10145;BME280;5113;41.822;23.564;2023-04-28T13:43:34;-11407.66;;;17.09;31.96
10145;BME280;5113;41.822;23.564;2023-04-28T13:46:40;-11424.56;;;17.70;31.14
10145;BME280;5113;41.822;23.564;2023-04-28T13:49:46;-11436.13;;;18.12;30.87
10145;BME280;5113;41.822;23.564;2023-04-28T13:52:53;-11421.59;;;17.60;32.19
10145;BME280;5113;41.822;23.564;2023-04-28T13:55:59;-11424.56;;;17.70;30.86
10145;BME280;5113;41.822;23.564;2023-04-28T13:59:07;-11413.84;;;17.32;31.17
10145;BME280;5113;41.822;23.564;2023-04-28T14:02:14;-11407.38;;;17.08;31.50
10145;BME280;5113;41.822;23.564;2023-04-28T14:05:20;-11449.66;;;18.61;30.40
10145;BME280;5113;41.822;23.564;2023-04-28T14:08:26;-11437.25;;;18.16;30.31
10145;BME280;5113;41.822;23.564;2023-04-28T14:11:33;-11440.63;;;18.28;28.32
10145;BME280;5113;41.822;23.564;2023-04-28T14:14:40;-11441.91;;;18.33;28.88
10145;BME280;5113;41.822;23.564;2023-04-28T14:17:48;-11409.91;;;17.17;28.78
10145;BME280;5113;41.822;23.564;2023-04-28T14:20:54;-11427.09;;;17.79;27.78
10145;BME280;5113;41.822;23.564;2023-04-28T14:24:01;-11407.09;;;17.07;28.19
10145;BME280;5113;41.822;23.564;2023-04-28T14:27:07;-11443.75;;;18.39;27.86
10145;BME280;5113;41.822;23.564;2023-04-28T14:30:15;-11448.66;;;18.57;26.70
10145;BME280;5113;41.822;23.564;2023-04-28T14:33:22;-11425.69;;;17.74;26.84
10145;BME280;5113;41.822;23.564;2023-04-28T14:36:29;-11428.53;;;17.85;26.22
10145;BME280;5113;41.822;23.564;2023-04-28T14:39:36;-11430.22;;;17.91;26.79
10145;BME280;5113;41.822;23.564;2023-04-28T14:42:43;-11421.19;;;17.58;26.36
10145;BME280;5113;41.822;23.564;2023-04-28T14:45:52;-11425.97;;;17.75;25.31
10145;BME280;5113;41.822;23.564;2023-04-28T14:48:58;-11418.38;;;17.48;25.87
10145;BME280;5113;41.822;23.564;2023-04-28T14:52:06;-11420.06;;;17.54;25.59
10145;BME280;5113;41.822;23.564;2023-04-28T14:55:12;-11412.16;;;17.26;25.51
10145;BME280;5113;41.822;23.564;2023-04-28T14:58:18;-11403.72;;;16.95;26.94
10145;BME280;5113;41.822;23.564;2023-04-28T15:01:26;-11410.91;;;17.21;26.39
10145;BME280;5113;41.822;23.564;2023-04-28T15:04:33;-11444.31;;;18.41;25.93
10145;BME280;5113;41.822;23.564;2023-04-28T15:07:39;-11440.91;;;18.29;25.58
10145;BME280;5113;41.822;23.564;2023-04-28T15:10:45;-11456.44;;;18.85;25.65
10145;BME280;5113;41.822;23.564;2023-04-28T15:13:51;-11396.94;;;16.71;27.59
10145;BME280;5113;41.822;23.564;2023-04-28T15:16:59;-11376.09;;;15.96;28.59
10145;BME280;5113;41.822;23.564;2023-04-28T15:20:06;-11373.41;;;15.86;28.04
10145;BME280;5113;41.822;23.564;2023-04-28T15:23:13;-11364.53;;;15.54;27.97
10145;BME280;5113;41.822;23.564;2023-04-28T15:26:19;-11368.47;;;15.68;28.04
10145;BME280;5113;41.822;23.564;2023-04-28T15:29:27;-11365.09;;;15.56;27.79
10145;BME280;5113;41.822;23.564;2023-04-28T15:32:35;-11369.03;;;15.70;27.47
10145;BME280;5113;41.822;23.564;2023-04-28T15:35:42;-11362.00;;;15.45;27.00
10145;BME280;5113;41.822;23.564;2023-04-28T15:38:49;-11361.84;;;15.44;27.91
10145;BME280;5113;41.822;23.564;2023-04-28T15:41:57;-11360.44;;;15.39;28.10
10145;BME280;5113;41.822;23.564;2023-04-28T15:45:07;-11348.47;;;14.96;28.99
10145;BME280;5113;41.822;23.564;2023-04-28T15:48:15;-11353.81;;;15.15;28.82
10145;BME280;5113;41.822;23.564;2023-04-28T15:51:22;-11350.72;;;15.04;27.94
10145;BME280;5113;41.822;23.564;2023-04-28T15:54:28;-11350.03;;;15.02;26.87
10145;BME280;5113;41.822;23.564;2023-04-28T15:57:35;-11351.84;;;15.08;27.08
10145;BME280;5113;41.822;23.564;2023-04-28T16:00:41;-11347.34;;;14.92;27.09
10145;BME280;5113;41.822;23.564;2023-04-28T16:03:51;-11347.34;;;14.92;28.05
10145;BME280;5113;41.822;23.564;2023-04-28T16:06:57;-11344.53;;;14.82;26.99
10145;BME280;5113;41.822;23.564;2023-04-28T16:10:08;-11344.09;;;14.80;26.98
10145;BME280;5113;41.822;23.564;2023-04-28T16:13:15;-11339.75;;;14.65;27.01
10145;BME280;5113;41.822;23.564;2023-04-28T16:16:21;-11341.16;;;14.70;27.99
10145;BME280;5113;41.822;23.564;2023-04-28T16:19:31;-11335.38;;;14.49;27.73
10145;BME280;5113;41.822;23.564;2023-04-28T16:22:38;-11337.22;;;14.56;28.27
10145;BME280;5113;41.822;23.564;2023-04-28T16:25:44;-11332.13;;;14.37;28.72
10145;BME280;5113;41.822;23.564;2023-04-28T16:28:52;-11327.63;;;14.21;29.11